createdAt,value
2017-01-28T00:00:07.576Z,923.36
2017-01-28T00:00:35.644Z,923.38
2017-01-28T00:01:04.393Z,923.41
2017-01-28T00:01:32.447Z,923.42
2017-01-28T00:02:01.023Z,923.37
2017-01-28T00:02:28.895Z,923.38
2017-01-28T00:02:56.971Z,923.36
2017-01-28T00:03:25.033Z,923.38
2017-01-28T00:03:53.072Z,923.35
2017-01-28T00:04:21.193Z,923.36
2017-01-28T00:04:49.922Z,923.33
2017-01-28T00:05:18.589Z,923.34
2017-01-28T00:05:46.662Z,923.32
2017-01-28T00:06:15.377Z,923.36
2017-01-28T00:06:43.308Z,923.32
2017-01-28T00:07:12.046Z,923.33
2017-01-28T00:07:39.891Z,923.36
2017-01-28T00:08:08.609Z,923.36
2017-01-28T00:08:36.577Z,923.36
2017-01-28T00:09:05.435Z,923.35
2017-01-28T00:09:34.306Z,923.36
2017-01-28T00:10:02.972Z,923.37
2017-01-28T00:10:31.716Z,923.34
2017-01-28T00:10:59.695Z,923.36
2017-01-28T00:12:06.030Z,923.38
2017-01-28T00:12:34.787Z,923.4
2017-01-28T00:13:02.831Z,923.42
2017-01-28T00:13:31.670Z,923.38
2017-01-28T00:13:59.648Z,923.41
2017-01-28T00:14:27.732Z,923.39
2017-01-28T00:14:56.568Z,923.41
2017-01-28T00:15:24.522Z,923.39
2017-01-28T00:15:52.518Z,923.35
2017-01-28T00:16:20.525Z,923.38
2017-01-28T00:16:48.405Z,923.37
2017-01-28T00:17:16.339Z,923.34
2017-01-28T00:17:44.307Z,923.32
2017-01-28T00:18:13.055Z,923.26
2017-01-28T00:18:40.930Z,923.22
2017-01-28T00:19:08.923Z,923.22
2017-01-28T00:19:37.006Z,923.22
2017-01-28T00:20:05.064Z,923.21
2017-01-28T00:20:33.040Z,923.22
2017-01-28T00:21:01.130Z,923.23
2017-01-28T00:21:29.807Z,923.19
2017-01-28T00:21:57.839Z,923.23
2017-01-28T00:22:26.534Z,923.23
2017-01-28T00:22:54.507Z,923.22
2017-01-28T00:23:22.413Z,923.25
2017-01-28T00:23:51.216Z,923.26
2017-01-28T00:24:19.187Z,923.3
2017-01-28T00:24:46.995Z,923.32
2017-01-28T00:25:14.960Z,923.35
2017-01-28T00:25:42.911Z,923.39
2017-01-28T00:26:10.812Z,923.41
2017-01-28T00:26:39.556Z,923.43
2017-01-28T00:27:07.348Z,923.43
2017-01-28T00:27:35.197Z,923.47
2017-01-28T00:28:03.030Z,923.42
2017-01-28T00:28:31.863Z,923.47
2017-01-28T00:28:59.831Z,923.47
2017-01-28T00:29:27.775Z,923.53
2017-01-28T00:29:56.588Z,923.55
2017-01-28T00:30:24.489Z,923.53
2017-01-28T00:30:53.934Z,923.53
2017-01-28T00:31:21.927Z,923.54
2017-01-28T00:31:49.799Z,923.61
2017-01-28T00:32:17.759Z,923.61
2017-01-28T00:32:47.388Z,923.63
2017-01-28T00:33:15.441Z,923.65
2017-01-28T00:33:43.204Z,923.64
2017-01-28T00:34:11.133Z,923.66
2017-01-28T00:34:39.212Z,923.71
2017-01-28T00:35:07.940Z,923.7
2017-01-28T00:35:35.897Z,923.75
2017-01-28T00:36:03.790Z,923.77
2017-01-28T00:36:31.910Z,923.8
2017-01-28T00:37:00.739Z,923.79
2017-01-28T00:37:28.717Z,923.81
2017-01-28T00:37:56.701Z,923.84
2017-01-28T00:38:25.469Z,923.82
2017-01-28T00:38:53.300Z,923.86
2017-01-28T00:39:22.148Z,923.82
2017-01-28T00:39:50.129Z,923.84
2017-01-28T00:40:18.187Z,923.81
2017-01-28T00:40:46.214Z,923.81
2017-01-28T00:41:14.110Z,923.78
2017-01-28T00:41:42.077Z,923.85
2017-01-28T00:42:10.157Z,923.84
2017-01-28T00:42:39.003Z,923.84
2017-01-28T00:43:07.726Z,923.85
2017-01-28T00:43:36.296Z,923.83
2017-01-28T00:44:04.329Z,923.85
2017-01-28T00:44:32.419Z,923.89
2017-01-28T00:45:01.271Z,923.87
2017-01-28T00:45:29.216Z,923.89
2017-01-28T00:45:57.246Z,923.9
2017-01-28T00:46:25.199Z,923.91
2017-01-28T00:46:53.139Z,923.94
2017-01-28T00:47:21.881Z,923.95
2017-01-28T00:47:50.629Z,923.98
2017-01-28T00:48:18.702Z,923.97
2017-01-28T00:48:46.698Z,923.98
2017-01-28T00:49:14.575Z,924.03
2017-01-28T00:49:42.687Z,924.01
2017-01-28T00:50:10.753Z,924.05
2017-01-28T00:51:16.887Z,924.05
2017-01-28T00:51:44.764Z,924.08
2017-01-28T00:52:12.725Z,924.11
2017-01-28T00:52:40.775Z,924.14
2017-01-28T00:53:08.753Z,924.15
2017-01-28T00:53:37.622Z,924.15
2017-01-28T00:54:05.667Z,924.13
2017-01-28T00:54:33.704Z,924.19
2017-01-28T00:55:01.618Z,924.17
2017-01-28T00:55:29.704Z,924.16
2017-01-28T00:55:57.768Z,924.17
2017-01-28T00:56:26.667Z,924.18
2017-01-28T00:56:54.490Z,924.16
2017-01-28T00:57:22.544Z,924.15
2017-01-28T00:57:50.422Z,924.16
2017-01-28T00:58:18.505Z,924.12
2017-01-28T00:58:47.132Z,924.16
2017-01-28T00:59:15.118Z,924.13
2017-01-28T00:59:44.745Z,924.18
2017-01-28T01:00:13.626Z,924.2
2017-01-28T01:00:41.645Z,924.2
2017-01-28T01:01:09.599Z,924.23
2017-01-28T01:01:37.328Z,924.25
2017-01-28T01:02:05.301Z,924.27
2017-01-28T01:02:33.386Z,924.27
2017-01-28T01:03:01.498Z,924.29
2017-01-28T01:03:30.243Z,924.26
2017-01-28T01:03:58.050Z,924.27
2017-01-28T01:04:26.790Z,924.25
2017-01-28T01:04:54.898Z,924.28
2017-01-28T01:05:22.895Z,924.24
2017-01-28T01:05:50.860Z,924.27
2017-01-28T01:06:18.835Z,924.23
2017-01-28T01:06:46.836Z,924.21
2017-01-28T01:07:15.553Z,924.26
2017-01-28T01:07:43.515Z,924.28
2017-01-28T01:08:11.391Z,924.26
2017-01-28T01:08:40.202Z,924.31
2017-01-28T01:09:08.139Z,924.3
2017-01-28T01:09:36.036Z,924.31
2017-01-28T01:10:04.006Z,924.28
2017-01-28T01:10:32.676Z,924.23
2017-01-28T01:11:00.658Z,924.27
2017-01-28T01:11:28.604Z,924.27
2017-01-28T01:11:56.662Z,924.2
2017-01-28T01:12:24.440Z,924.26
2017-01-28T01:12:52.480Z,924.25
2017-01-28T01:13:20.502Z,924.26
2017-01-28T01:13:48.432Z,924.32
2017-01-28T01:14:16.474Z,924.26
2017-01-28T01:14:45.223Z,924.31
2017-01-28T01:15:13.978Z,924.31
2017-01-28T01:15:42.005Z,924.29
2017-01-28T01:16:09.961Z,924.26
2017-01-28T01:16:37.841Z,924.3
2017-01-28T01:17:06.522Z,924.3
2017-01-28T01:17:34.598Z,924.31
2017-01-28T01:18:03.479Z,924.31
2017-01-28T01:18:31.543Z,924.3
2017-01-28T01:18:59.610Z,924.31
2017-01-28T01:19:27.490Z,924.3
2017-01-28T01:19:55.427Z,924.31
2017-01-28T01:20:23.519Z,924.31
2017-01-28T01:20:51.580Z,924.3
2017-01-28T01:21:19.653Z,924.31
2017-01-28T01:21:47.627Z,924.3
2017-01-28T01:22:15.664Z,924.33
2017-01-28T01:22:43.642Z,924.31
2017-01-28T01:23:11.680Z,924.35
2017-01-28T01:23:39.685Z,924.34
2017-01-28T01:24:07.756Z,924.37
2017-01-28T01:24:36.596Z,924.35
2017-01-28T01:25:04.500Z,924.31
2017-01-28T01:25:32.376Z,924.33
2017-01-28T01:26:00.407Z,924.24
2017-01-28T01:26:29.213Z,924.3
2017-01-28T01:26:58.059Z,924.33
2017-01-28T01:27:26.825Z,924.21
2017-01-28T01:27:54.826Z,924.29
2017-01-28T01:28:23.575Z,924.24
2017-01-28T01:28:53.199Z,924.26
2017-01-28T01:29:21.088Z,924.26
2017-01-28T01:30:27.360Z,924.26
2017-01-28T01:30:55.334Z,924.23
2017-01-28T01:31:23.207Z,924.19
2017-01-28T01:31:51.265Z,924.16
2017-01-28T01:32:19.240Z,924.2
2017-01-28T01:32:48.085Z,924.16
2017-01-28T01:33:16.134Z,924.08
2017-01-28T01:33:44.786Z,924.16
2017-01-28T01:34:12.694Z,924.13
2017-01-28T01:34:41.480Z,924.08
2017-01-28T01:35:09.450Z,923.97
2017-01-28T01:35:38.393Z,924.15
2017-01-28T01:36:06.273Z,924.16
2017-01-28T01:36:34.919Z,924.15
2017-01-28T01:37:03.569Z,924.2
2017-01-28T01:37:31.390Z,924.21
2017-01-28T01:37:59.413Z,924.18
2017-01-28T01:38:27.489Z,924.24
2017-01-28T01:38:56.344Z,924.24
2017-01-28T01:39:24.346Z,924.22
2017-01-28T01:39:52.421Z,924.21
2017-01-28T01:40:20.369Z,924.2
2017-01-28T01:40:48.356Z,924.21
2017-01-28T01:41:16.329Z,924.27
2017-01-28T01:41:44.232Z,924.29
2017-01-28T01:42:12.168Z,924.25
2017-01-28T01:42:40.238Z,924.27
2017-01-28T01:43:08.226Z,924.26
2017-01-28T01:43:36.293Z,924.26
2017-01-28T01:44:04.249Z,924.31
2017-01-28T01:44:32.922Z,924.29
2017-01-28T01:45:00.786Z,924.24
2017-01-28T01:45:28.857Z,924.27
2017-01-28T01:45:56.956Z,924.24
2017-01-28T01:46:24.897Z,924.25
2017-01-28T01:46:52.869Z,924.2
2017-01-28T01:47:20.745Z,924.19
2017-01-28T01:47:48.775Z,924.17
2017-01-28T01:48:16.533Z,924.13
2017-01-28T01:48:44.529Z,924.19
2017-01-28T01:49:13.279Z,924.12
2017-01-28T01:49:41.386Z,924.16
2017-01-28T01:50:10.045Z,924.14
2017-01-28T01:50:38.144Z,924.16
2017-01-28T01:51:06.031Z,924.13
2017-01-28T01:51:33.906Z,924.16
2017-01-28T01:52:01.858Z,924.13
2017-01-28T01:52:29.705Z,924.12
2017-01-28T01:52:58.512Z,924.17
2017-01-28T01:53:26.555Z,924.16
2017-01-28T01:53:54.527Z,924.13
2017-01-28T01:54:22.515Z,924.13
2017-01-28T01:54:51.405Z,924.1
2017-01-28T01:55:19.443Z,924.03
2017-01-28T01:55:47.504Z,924.09
2017-01-28T01:56:15.575Z,924.13
2017-01-28T01:56:43.561Z,924.04
2017-01-28T01:57:11.663Z,924.01
2017-01-28T01:57:39.635Z,924.03
2017-01-28T01:58:07.436Z,924.02
2017-01-28T01:58:35.406Z,924.04
2017-01-28T01:59:04.221Z,924.04
2017-01-28T01:59:32.108Z,924.02
2017-01-28T02:00:00.162Z,924.07
2017-01-28T02:00:29.811Z,924.06
2017-01-28T02:00:58.566Z,924.03
2017-01-28T02:01:26.693Z,924.04
2017-01-28T02:01:55.281Z,924
2017-01-28T02:02:23.219Z,924.03
2017-01-28T02:02:51.311Z,923.95
2017-01-28T02:03:19.385Z,923.97
2017-01-28T02:03:47.250Z,924.02
2017-01-28T02:04:15.186Z,923.99
2017-01-28T02:04:43.932Z,923.91
2017-01-28T02:05:12.739Z,923.95
2017-01-28T02:05:41.575Z,924
2017-01-28T02:06:10.415Z,923.99
2017-01-28T02:06:38.307Z,923.96
2017-01-28T02:07:06.396Z,923.94
2017-01-28T02:07:34.371Z,923.92
2017-01-28T02:08:02.335Z,923.94
2017-01-28T02:08:31.175Z,923.89
2017-01-28T02:09:37.216Z,923.9
2017-01-28T02:10:06.058Z,923.88
2017-01-28T02:10:34.111Z,923.84
2017-01-28T02:11:02.079Z,923.87
2017-01-28T02:11:30.150Z,923.85
2017-01-28T02:11:58.140Z,923.81
2017-01-28T02:12:25.842Z,923.81
2017-01-28T02:12:53.743Z,923.83
2017-01-28T02:13:22.575Z,923.86
2017-01-28T02:13:51.350Z,923.85
2017-01-28T02:14:19.412Z,923.83
2017-01-28T02:14:47.439Z,923.84
2017-01-28T02:15:15.408Z,923.84
2017-01-28T02:15:43.279Z,923.81
2017-01-28T02:16:12.126Z,923.82
2017-01-28T02:16:40.823Z,923.81
2017-01-28T02:17:08.871Z,923.8
2017-01-28T02:17:36.905Z,923.76
2017-01-28T02:18:04.987Z,923.78
2017-01-28T02:18:32.993Z,923.77
2017-01-28T02:19:00.984Z,923.77
2017-01-28T02:19:28.845Z,923.77
2017-01-28T02:19:56.565Z,923.75
2017-01-28T02:20:24.546Z,923.72
2017-01-28T02:20:52.642Z,923.76
2017-01-28T02:21:21.523Z,923.7
2017-01-28T02:21:49.595Z,923.71
2017-01-28T02:22:18.455Z,923.72
2017-01-28T02:22:46.331Z,923.7
2017-01-28T02:23:14.380Z,923.67
2017-01-28T02:23:42.457Z,923.69
2017-01-28T02:24:11.191Z,923.69
2017-01-28T02:24:40.038Z,923.68
2017-01-28T02:25:08.906Z,923.73
2017-01-28T02:25:36.842Z,923.76
2017-01-28T02:26:04.718Z,923.74
2017-01-28T02:26:32.775Z,923.78
2017-01-28T02:27:00.544Z,923.74
2017-01-28T02:27:29.268Z,923.78
2017-01-28T02:27:58.032Z,923.79
2017-01-28T02:28:27.468Z,923.75
2017-01-28T02:28:56.324Z,923.74
2017-01-28T02:29:24.277Z,923.76
2017-01-28T02:29:52.050Z,923.78
2017-01-28T02:30:20.111Z,923.74
2017-01-28T02:30:47.986Z,923.69
2017-01-28T02:31:15.835Z,923.7
2017-01-28T02:31:43.943Z,923.73
2017-01-28T02:32:12.659Z,923.69
2017-01-28T02:32:40.610Z,923.66
2017-01-28T02:33:08.478Z,923.68
2017-01-28T02:33:36.465Z,923.66
2017-01-28T02:34:04.493Z,923.63
2017-01-28T02:34:32.449Z,923.63
2017-01-28T02:35:00.240Z,923.64
2017-01-28T02:35:28.313Z,923.64
2017-01-28T02:35:56.313Z,923.58
2017-01-28T02:36:24.329Z,923.62
2017-01-28T02:36:52.230Z,923.63
2017-01-28T02:37:20.281Z,923.64
2017-01-28T02:37:48.246Z,923.66
2017-01-28T02:38:16.185Z,923.65
2017-01-28T02:38:44.181Z,923.67
2017-01-28T02:39:12.238Z,923.68
2017-01-28T02:39:40.230Z,923.66
2017-01-28T02:40:08.294Z,923.67
2017-01-28T02:40:36.331Z,923.66
2017-01-28T02:41:05.077Z,923.66
2017-01-28T02:41:33.027Z,923.63
2017-01-28T02:42:00.921Z,923.68
2017-01-28T02:42:30.463Z,923.69
2017-01-28T02:42:58.505Z,923.66
2017-01-28T02:43:26.437Z,923.69
2017-01-28T02:43:54.404Z,923.7
2017-01-28T02:44:22.340Z,923.69
2017-01-28T02:44:50.191Z,923.72
2017-01-28T02:45:18.943Z,923.71
2017-01-28T02:45:46.837Z,923.69
2017-01-28T02:46:15.630Z,923.65
2017-01-28T02:46:43.601Z,923.67
2017-01-28T02:47:11.570Z,923.64
2017-01-28T02:47:39.549Z,923.66
2017-01-28T02:48:45.863Z,923.62
2017-01-28T02:49:13.925Z,923.59
2017-01-28T02:49:42.759Z,923.52
2017-01-28T02:50:10.634Z,923.56
2017-01-28T02:50:38.619Z,923.56
2017-01-28T02:51:06.666Z,923.51
2017-01-28T02:51:36.313Z,923.5
2017-01-28T02:52:04.324Z,923.56
2017-01-28T02:52:32.425Z,923.52
2017-01-28T02:53:00.513Z,923.5
2017-01-28T02:53:29.364Z,923.49
2017-01-28T02:53:57.474Z,923.48
2017-01-28T02:54:25.534Z,923.44
2017-01-28T02:54:53.319Z,923.44
2017-01-28T02:55:21.288Z,923.46
2017-01-28T02:55:49.983Z,923.4
2017-01-28T02:56:17.733Z,923.39
2017-01-28T02:56:45.800Z,923.4
2017-01-28T02:57:13.687Z,923.4
2017-01-28T02:57:42.371Z,923.37
2017-01-28T02:58:10.447Z,923.39
2017-01-28T02:58:38.396Z,923.36
2017-01-28T02:59:06.384Z,923.35
2017-01-28T02:59:34.452Z,923.3
2017-01-28T03:00:02.447Z,923.33
2017-01-28T03:00:31.337Z,923.31
2017-01-28T03:00:59.396Z,923.31
2017-01-28T03:01:27.384Z,923.32
2017-01-28T03:01:55.365Z,923.28
2017-01-28T03:02:24.105Z,923.23
2017-01-28T03:02:52.102Z,923.28
2017-01-28T03:03:20.072Z,923.27
2017-01-28T03:03:48.797Z,923.25
2017-01-28T03:04:16.888Z,923.22
2017-01-28T03:04:44.910Z,923.28
2017-01-28T03:05:13.750Z,923.23
2017-01-28T03:05:42.405Z,923.22
2017-01-28T03:06:10.462Z,923.26
2017-01-28T03:06:38.402Z,923.21
2017-01-28T03:07:06.403Z,923.23
2017-01-28T03:07:35.161Z,923.25
2017-01-28T03:08:03.163Z,923.2
2017-01-28T03:08:31.037Z,923.22
2017-01-28T03:08:58.990Z,923.13
2017-01-28T03:09:27.764Z,923.2
2017-01-28T03:09:55.728Z,923.19
2017-01-28T03:10:23.759Z,923.21
2017-01-28T03:10:51.782Z,923.19
2017-01-28T03:11:19.622Z,923.22
2017-01-28T03:11:47.560Z,923.17
2017-01-28T03:12:16.303Z,923.17
2017-01-28T03:12:44.378Z,923.18
2017-01-28T03:13:12.404Z,923.2
2017-01-28T03:13:40.270Z,923.21
2017-01-28T03:14:08.155Z,923.13
2017-01-28T03:14:36.137Z,923.19
2017-01-28T03:15:04.034Z,923.16
2017-01-28T03:15:32.048Z,923.17
2017-01-28T03:16:00.113Z,923.14
2017-01-28T03:16:28.878Z,923.14
2017-01-28T03:16:56.935Z,923.11
2017-01-28T03:17:24.873Z,923.08
2017-01-28T03:17:52.950Z,923.03
2017-01-28T03:18:20.823Z,923.06
2017-01-28T03:18:48.811Z,923.09
2017-01-28T03:19:17.469Z,923.1
2017-01-28T03:19:45.595Z,923
2017-01-28T03:20:13.578Z,922.98
2017-01-28T03:20:42.400Z,923.01
2017-01-28T03:21:10.387Z,923.07
2017-01-28T03:21:38.516Z,923.02
2017-01-28T03:22:06.286Z,923.08
2017-01-28T03:22:34.311Z,923.02
2017-01-28T03:23:02.189Z,923.06
2017-01-28T03:23:30.123Z,923.08
2017-01-28T03:23:57.989Z,923.01
2017-01-28T03:24:25.959Z,923.02
2017-01-28T03:24:56.303Z,923.04
2017-01-28T03:25:24.295Z,923.03
2017-01-28T03:25:52.262Z,923.01
2017-01-28T03:26:20.225Z,922.98
2017-01-28T03:26:49.074Z,922.93
2017-01-28T03:27:55.390Z,923.01
2017-01-28T03:28:23.350Z,923
2017-01-28T03:28:51.395Z,923.01
2017-01-28T03:29:19.359Z,923.01
2017-01-28T03:29:48.117Z,923.01
2017-01-28T03:30:15.922Z,923.03
2017-01-28T03:30:43.972Z,922.95
2017-01-28T03:31:11.756Z,923.02
2017-01-28T03:31:39.755Z,923.02
2017-01-28T03:32:08.522Z,922.98
2017-01-28T03:32:37.377Z,923
2017-01-28T03:33:05.484Z,923.01
2017-01-28T03:33:33.448Z,922.97
2017-01-28T03:34:02.175Z,922.96
2017-01-28T03:34:30.139Z,922.92
2017-01-28T03:34:59.007Z,922.97
2017-01-28T03:35:26.936Z,922.97
2017-01-28T03:35:54.906Z,922.95
2017-01-28T03:36:23.124Z,922.9
2017-01-28T03:36:50.946Z,922.92
2017-01-28T03:37:19.803Z,922.9
2017-01-28T03:37:47.744Z,922.86
2017-01-28T03:38:15.660Z,922.85
2017-01-28T03:38:44.405Z,922.84
2017-01-28T03:39:12.323Z,922.79
2017-01-28T03:39:40.425Z,922.75
2017-01-28T03:40:08.306Z,922.71
2017-01-28T03:40:36.202Z,922.73
2017-01-28T03:41:04.175Z,922.71
2017-01-28T03:41:32.129Z,922.72
2017-01-28T03:42:00.991Z,922.73
2017-01-28T03:42:28.939Z,922.69
2017-01-28T03:42:56.911Z,922.7
2017-01-28T03:43:24.928Z,922.64
2017-01-28T03:43:52.948Z,922.7
2017-01-28T03:44:21.520Z,922.67
2017-01-28T03:44:49.615Z,922.73
2017-01-28T03:45:17.625Z,922.69
2017-01-28T03:45:45.484Z,922.71
2017-01-28T03:46:13.552Z,922.7
2017-01-28T03:46:41.607Z,922.72
2017-01-28T03:47:10.476Z,922.68
2017-01-28T03:47:38.439Z,922.7
2017-01-28T03:48:06.474Z,922.65
2017-01-28T03:48:34.564Z,922.65
2017-01-28T03:49:02.525Z,922.66
2017-01-28T03:49:30.474Z,922.61
2017-01-28T03:49:58.493Z,922.64
2017-01-28T03:50:26.427Z,922.64
2017-01-28T03:50:56.028Z,922.6
2017-01-28T03:51:23.909Z,922.63
2017-01-28T03:51:52.381Z,922.66
2017-01-28T03:52:20.409Z,922.65
2017-01-28T03:52:48.367Z,922.62
2017-01-28T03:53:16.343Z,922.66
2017-01-28T03:53:44.245Z,922.63
2017-01-28T03:54:12.227Z,922.7
2017-01-28T03:54:40.247Z,922.67
2017-01-28T03:55:08.988Z,922.7
2017-01-28T03:55:36.963Z,922.7
2017-01-28T03:56:05.015Z,922.68
2017-01-28T03:56:32.958Z,922.73
2017-01-28T03:57:00.857Z,922.73
2017-01-28T03:57:28.828Z,922.75
2017-01-28T03:57:56.730Z,922.71
2017-01-28T03:58:25.482Z,922.76
2017-01-28T03:58:54.287Z,922.74
2017-01-28T03:59:22.184Z,922.8
2017-01-28T03:59:50.136Z,922.77
2017-01-28T04:00:18.904Z,922.79
2017-01-28T04:00:46.876Z,922.8
2017-01-28T04:01:15.607Z,922.84
2017-01-28T04:01:43.544Z,922.82
2017-01-28T04:02:12.291Z,922.84
2017-01-28T04:02:41.012Z,922.81
2017-01-28T04:03:08.953Z,922.81
2017-01-28T04:03:36.926Z,922.86
2017-01-28T04:04:04.999Z,922.84
2017-01-28T04:04:32.996Z,922.83
2017-01-28T04:05:01.744Z,922.86
2017-01-28T04:05:29.613Z,922.85
2017-01-28T04:05:58.453Z,922.87
2017-01-28T04:07:04.832Z,922.87
2017-01-28T04:07:32.892Z,922.9
2017-01-28T04:08:00.847Z,922.83
2017-01-28T04:08:28.902Z,922.85
2017-01-28T04:08:57.566Z,922.89
2017-01-28T04:09:25.546Z,922.83
2017-01-28T04:09:53.419Z,922.86
2017-01-28T04:10:21.463Z,922.84
2017-01-28T04:10:50.336Z,922.87
2017-01-28T04:11:18.341Z,922.82
2017-01-28T04:11:46.399Z,922.76
2017-01-28T04:12:15.200Z,922.8
2017-01-28T04:12:43.076Z,922.85
2017-01-28T04:13:10.935Z,922.79
2017-01-28T04:13:39.594Z,922.76
2017-01-28T04:14:08.466Z,922.79
2017-01-28T04:14:36.308Z,922.77
2017-01-28T04:15:04.105Z,922.71
2017-01-28T04:15:32.856Z,922.72
2017-01-28T04:16:00.948Z,922.66
2017-01-28T04:16:30.486Z,922.59
2017-01-28T04:16:58.517Z,922.68
2017-01-28T04:17:26.422Z,922.67
2017-01-28T04:17:54.220Z,922.63
2017-01-28T04:18:22.908Z,922.68
2017-01-28T04:18:50.925Z,922.59
2017-01-28T04:19:18.983Z,922.63
2017-01-28T04:19:46.964Z,922.62
2017-01-28T04:20:15.796Z,922.57
2017-01-28T04:20:43.745Z,922.58
2017-01-28T04:21:13.290Z,922.65
2017-01-28T04:21:42.020Z,922.62
2017-01-28T04:22:10.007Z,922.64
2017-01-28T04:22:38.101Z,922.66
2017-01-28T04:23:06.900Z,922.66
2017-01-28T04:23:35.743Z,922.6
2017-01-28T04:24:03.797Z,922.57
2017-01-28T04:24:31.739Z,922.61
2017-01-28T04:24:59.766Z,922.51
2017-01-28T04:25:27.762Z,922.63
2017-01-28T04:25:55.758Z,922.63
2017-01-28T04:26:23.663Z,922.61
2017-01-28T04:26:51.533Z,922.6
2017-01-28T04:27:20.345Z,922.58
2017-01-28T04:27:48.227Z,922.59
2017-01-28T04:28:16.978Z,922.54
2017-01-28T04:28:45.010Z,922.56
2017-01-28T04:29:13.024Z,922.57
2017-01-28T04:29:40.955Z,922.58
2017-01-28T04:30:08.897Z,922.57
2017-01-28T04:30:36.850Z,922.56
2017-01-28T04:31:04.747Z,922.58
2017-01-28T04:31:33.651Z,922.6
2017-01-28T04:32:01.600Z,922.6
2017-01-28T04:32:29.658Z,922.58
2017-01-28T04:32:57.733Z,922.59
2017-01-28T04:33:25.717Z,922.6
2017-01-28T04:33:53.823Z,922.59
2017-01-28T04:34:21.887Z,922.61
2017-01-28T04:34:49.776Z,922.62
2017-01-28T04:35:17.736Z,922.57
2017-01-28T04:35:47.341Z,922.58
2017-01-28T04:36:15.320Z,922.57
2017-01-28T04:36:43.196Z,922.6
2017-01-28T04:37:12.118Z,922.64
2017-01-28T04:37:41.656Z,922.6
2017-01-28T04:38:09.605Z,922.59
2017-01-28T04:38:37.585Z,922.59
2017-01-28T04:39:06.318Z,922.59
2017-01-28T04:39:34.396Z,922.57
2017-01-28T04:40:02.364Z,922.58
2017-01-28T04:40:31.003Z,922.56
2017-01-28T04:40:59.631Z,922.53
2017-01-28T04:41:27.500Z,922.53
2017-01-28T04:41:55.345Z,922.57
2017-01-28T04:42:24.162Z,922.58
2017-01-28T04:42:52.900Z,922.52
2017-01-28T04:43:20.787Z,922.54
2017-01-28T04:43:48.607Z,922.52
2017-01-28T04:44:17.386Z,922.55
2017-01-28T04:44:45.444Z,922.53
2017-01-28T04:45:14.295Z,922.52
2017-01-28T04:46:20.606Z,922.58
2017-01-28T04:46:49.256Z,922.55
2017-01-28T04:47:17.985Z,922.59
2017-01-28T04:47:45.947Z,922.57
2017-01-28T04:48:13.833Z,922.57
2017-01-28T04:48:41.814Z,922.55
2017-01-28T04:49:11.429Z,922.56
2017-01-28T04:49:39.296Z,922.52
2017-01-28T04:50:07.291Z,922.54
2017-01-28T04:50:35.294Z,922.53
2017-01-28T04:51:03.353Z,922.55
2017-01-28T04:51:31.465Z,922.5
2017-01-28T04:52:00.211Z,922.52
2017-01-28T04:52:29.017Z,922.5
2017-01-28T04:52:57.066Z,922.5
2017-01-28T04:53:24.972Z,922.5
2017-01-28T04:53:53.599Z,922.48
2017-01-28T04:54:22.386Z,922.48
2017-01-28T04:54:50.329Z,922.47
2017-01-28T04:55:19.015Z,922.48
2017-01-28T04:55:47.094Z,922.49
2017-01-28T04:56:14.950Z,922.47
2017-01-28T04:56:42.854Z,922.47
2017-01-28T04:57:10.746Z,922.48
2017-01-28T04:57:38.748Z,922.51
2017-01-28T04:58:07.546Z,922.47
2017-01-28T04:58:37.167Z,922.51
2017-01-28T04:59:05.153Z,922.49
2017-01-28T04:59:33.029Z,922.48
2017-01-28T05:00:01.072Z,922.48
2017-01-28T05:00:30.714Z,922.46
2017-01-28T05:00:59.362Z,922.49
2017-01-28T05:01:28.028Z,922.47
2017-01-28T05:01:56.030Z,922.47
2017-01-28T05:02:24.657Z,922.48
2017-01-28T05:02:52.655Z,922.44
2017-01-28T05:03:20.708Z,922.44
2017-01-28T05:03:48.745Z,922.41
2017-01-28T05:04:17.470Z,922.43
2017-01-28T05:04:45.366Z,922.39
2017-01-28T05:05:14.215Z,922.42
2017-01-28T05:05:42.114Z,922.38
2017-01-28T05:06:09.984Z,922.42
2017-01-28T05:06:38.014Z,922.34
2017-01-28T05:07:05.900Z,922.37
2017-01-28T05:07:33.917Z,922.38
2017-01-28T05:08:03.429Z,922.38
2017-01-28T05:08:31.452Z,922.36
2017-01-28T05:09:00.256Z,922.34
2017-01-28T05:09:28.982Z,922.36
2017-01-28T05:09:56.847Z,922.37
2017-01-28T05:10:24.833Z,922.36
2017-01-28T05:10:52.770Z,922.33
2017-01-28T05:11:20.817Z,922.34
2017-01-28T05:11:48.789Z,922.35
2017-01-28T05:12:16.861Z,922.31
2017-01-28T05:12:44.936Z,922.31
2017-01-28T05:13:14.609Z,922.35
2017-01-28T05:13:43.444Z,922.32
2017-01-28T05:14:11.512Z,922.31
2017-01-28T05:14:40.266Z,922.25
2017-01-28T05:15:08.208Z,922.26
2017-01-28T05:15:36.183Z,922.25
2017-01-28T05:16:04.234Z,922.25
2017-01-28T05:16:33.096Z,922.3
2017-01-28T05:17:01.069Z,922.21
2017-01-28T05:17:29.016Z,922.23
2017-01-28T05:17:57.773Z,922.28
2017-01-28T05:18:26.597Z,922.28
2017-01-28T05:18:54.580Z,922.27
2017-01-28T05:19:22.470Z,922.25
2017-01-28T05:19:51.209Z,922.26
2017-01-28T05:20:19.239Z,922.17
2017-01-28T05:20:48.679Z,922.2
2017-01-28T05:21:16.705Z,922.24
2017-01-28T05:21:44.654Z,922.26
2017-01-28T05:22:12.707Z,922.22
2017-01-28T05:22:40.797Z,922.17
2017-01-28T05:23:08.795Z,922.19
2017-01-28T05:23:36.671Z,922.15
2017-01-28T05:24:04.723Z,922.13
2017-01-28T05:24:32.789Z,922.14
2017-01-28T05:25:39.099Z,922.1
2017-01-28T05:26:07.943Z,922.09
2017-01-28T05:26:35.748Z,922.06
2017-01-28T05:27:03.775Z,922.1
2017-01-28T05:27:31.743Z,922.04
2017-01-28T05:28:00.498Z,922.06
2017-01-28T05:28:30.025Z,922.08
2017-01-28T05:28:58.066Z,922.05
2017-01-28T05:29:26.161Z,922.01
2017-01-28T05:29:54.071Z,922.02
2017-01-28T05:30:22.912Z,922.01
2017-01-28T05:30:51.019Z,922.07
2017-01-28T05:31:18.982Z,922
2017-01-28T05:31:47.028Z,922.02
2017-01-28T05:32:14.812Z,921.91
2017-01-28T05:32:43.696Z,921.98
2017-01-28T05:33:12.306Z,921.96
2017-01-28T05:33:40.375Z,921.97
2017-01-28T05:34:08.354Z,921.96
2017-01-28T05:34:37.035Z,921.94
2017-01-28T05:35:05.795Z,921.95
2017-01-28T05:35:33.656Z,921.94
2017-01-28T05:36:01.741Z,921.91
2017-01-28T05:36:29.806Z,921.86
2017-01-28T05:36:58.480Z,921.89
2017-01-28T05:37:27.365Z,921.93
2017-01-28T05:37:57.720Z,921.83
2017-01-28T05:38:25.615Z,921.82
2017-01-28T05:38:55.183Z,921.9
2017-01-28T05:39:23.110Z,921.91
2017-01-28T05:39:51.964Z,921.94
2017-01-28T05:40:19.909Z,921.94
2017-01-28T05:40:47.791Z,921.93
2017-01-28T05:41:15.792Z,921.95
2017-01-28T05:41:44.412Z,921.89
2017-01-28T05:42:12.281Z,921.97
2017-01-28T05:42:40.340Z,921.91
2017-01-28T05:43:09.155Z,921.86
2017-01-28T05:43:38.667Z,921.89
2017-01-28T05:44:07.509Z,921.9
2017-01-28T05:44:36.265Z,921.89
2017-01-28T05:45:04.182Z,921.87
2017-01-28T05:45:32.155Z,921.86
2017-01-28T05:45:59.986Z,921.86
2017-01-28T05:46:27.868Z,921.88
2017-01-28T05:46:55.739Z,921.86
2017-01-28T05:47:24.467Z,921.82
2017-01-28T05:47:53.354Z,921.86
2017-01-28T05:48:22.064Z,921.87
2017-01-28T05:48:50.097Z,921.87
2017-01-28T05:49:18.933Z,921.86
2017-01-28T05:49:46.829Z,921.86
2017-01-28T05:50:15.538Z,921.84
2017-01-28T05:50:43.582Z,921.79
2017-01-28T05:51:11.545Z,921.85
2017-01-28T05:51:40.306Z,921.78
2017-01-28T05:52:08.201Z,921.81
2017-01-28T05:52:36.212Z,921.78
2017-01-28T05:53:04.577Z,921.78
2017-01-28T05:53:32.644Z,921.74
2017-01-28T05:54:00.426Z,921.78
2017-01-28T05:54:30.021Z,921.76
2017-01-28T05:54:58.681Z,921.67
2017-01-28T05:55:28.310Z,921.72
2017-01-28T05:55:56.209Z,921.78
2017-01-28T05:56:24.278Z,921.74
2017-01-28T05:56:53.100Z,921.78
2017-01-28T05:57:21.020Z,921.76
2017-01-28T05:57:48.877Z,921.83
2017-01-28T05:58:16.673Z,921.73
2017-01-28T05:58:45.242Z,921.74
2017-01-28T05:59:14.831Z,921.74